sensor_id;sensor_type;location;lat;lon;timestamp;P1;durP1;ratioP1;P2;durP2;ratioP2
51296;SDS011;37380;45.186;9.792;2023-06-14T00:01:37;16.55;;;14.95;;
51296;SDS011;37380;45.186;9.792;2023-06-14T00:04:04;15.23;;;13.77;;
51296;SDS011;37380;45.186;9.792;2023-06-14T00:06:32;14.40;;;12.95;;
51296;SDS011;37380;45.186;9.792;2023-06-14T00:09:00;14.55;;;13.30;;
51296;SDS011;37380;45.186;9.792;2023-06-14T00:11:27;13.85;;;12.68;;
51296;SDS011;37380;45.186;9.792;2023-06-14T00:13:56;14.93;;;13.23;;
51296;SDS011;37380;45.186;9.792;2023-06-14T00:16:24;15.88;;;14.43;;
51296;SDS011;37380;45.186;9.792;2023-06-14T00:18:51;15.13;;;13.73;;
51296;SDS011;37380;45.186;9.792;2023-06-14T00:21:21;16.50;;;13.65;;
51296;SDS011;37380;45.186;9.792;2023-06-14T00:23:48;15.25;;;13.70;;
51296;SDS011;37380;45.186;9.792;2023-06-14T00:26:15;16.20;;;14.60;;
51296;SDS011;37380;45.186;9.792;2023-06-14T00:28:43;16.38;;;13.57;;
51296;SDS011;37380;45.186;9.792;2023-06-14T00:31:10;16.92;;;14.38;;
51296;SDS011;37380;45.186;9.792;2023-06-14T00:33:38;22.35;;;16.00;;
51296;SDS011;37380;45.186;9.792;2023-06-14T00:36:05;17.35;;;15.95;;
51296;SDS011;37380;45.186;9.792;2023-06-14T00:38:32;19.20;;;17.38;;
51296;SDS011;37380;45.186;9.792;2023-06-14T00:40:59;20.08;;;17.55;;
51296;SDS011;37380;45.186;9.792;2023-06-14T00:43:26;19.17;;;17.35;;
51296;SDS011;37380;45.186;9.792;2023-06-14T00:45:54;18.98;;;17.27;;
51296;SDS011;37380;45.186;9.792;2023-06-14T00:48:21;24.15;;;19.25;;
51296;SDS011;37380;45.186;9.792;2023-06-14T00:50:49;23.08;;;20.67;;
51296;SDS011;37380;45.186;9.792;2023-06-14T00:53:19;21.98;;;19.95;;
51296;SDS011;37380;45.186;9.792;2023-06-14T00:55:51;24.00;;;20.40;;
51296;SDS011;37380;45.186;9.792;2023-06-14T00:58:18;23.88;;;21.65;;
51296;SDS011;37380;45.186;9.792;2023-06-14T01:00:48;32.83;;;21.92;;
51296;SDS011;37380;45.186;9.792;2023-06-14T01:03:15;24.25;;;22.00;;
51296;SDS011;37380;45.186;9.792;2023-06-14T01:05:50;28.73;;;23.65;;
51296;SDS011;37380;45.186;9.792;2023-06-14T01:08:27;23.65;;;21.27;;
51296;SDS011;37380;45.186;9.792;2023-06-14T01:11:07;24.45;;;21.15;;
51296;SDS011;37380;45.186;9.792;2023-06-14T01:13:39;23.65;;;21.45;;
51296;SDS011;37380;45.186;9.792;2023-06-14T01:16:10;24.83;;;22.42;;
51296;SDS011;37380;45.186;9.792;2023-06-14T01:18:37;26.92;;;24.27;;
51296;SDS011;37380;45.186;9.792;2023-06-14T01:21:05;25.42;;;22.58;;
51296;SDS011;37380;45.186;9.792;2023-06-14T01:23:32;27.40;;;24.80;;
51296;SDS011;37380;45.186;9.792;2023-06-14T01:26:00;28.05;;;24.17;;
51296;SDS011;37380;45.186;9.792;2023-06-14T01:28:33;27.25;;;24.60;;
51296;SDS011;37380;45.186;9.792;2023-06-14T01:31:02;27.10;;;24.40;;
51296;SDS011;37380;45.186;9.792;2023-06-14T01:33:32;27.92;;;24.30;;
51296;SDS011;37380;45.186;9.792;2023-06-14T01:36:01;28.27;;;25.65;;
51296;SDS011;37380;45.186;9.792;2023-06-14T01:38:30;30.20;;;27.52;;
51296;SDS011;37380;45.186;9.792;2023-06-14T01:40:58;39.42;;;31.33;;
51296;SDS011;37380;45.186;9.792;2023-06-14T01:43:29;35.90;;;32.25;;
51296;SDS011;37380;45.186;9.792;2023-06-14T01:45:58;31.30;;;28.42;;
51296;SDS011;37380;45.186;9.792;2023-06-14T01:48:26;31.63;;;28.70;;
51296;SDS011;37380;45.186;9.792;2023-06-14T01:50:53;32.58;;;29.58;;
51296;SDS011;37380;45.186;9.792;2023-06-14T01:53:21;30.33;;;27.40;;
51296;SDS011;37380;45.186;9.792;2023-06-14T01:55:48;30.67;;;27.88;;
51296;SDS011;37380;45.186;9.792;2023-06-14T01:58:15;33.00;;;29.88;;
51296;SDS011;37380;45.186;9.792;2023-06-14T02:00:43;34.83;;;31.23;;
51296;SDS011;37380;45.186;9.792;2023-06-14T02:03:11;34.92;;;31.52;;
51296;SDS011;37380;45.186;9.792;2023-06-14T02:05:38;37.25;;;33.33;;
51296;SDS011;37380;45.186;9.792;2023-06-14T02:08:06;39.78;;;35.78;;
51296;SDS011;37380;45.186;9.792;2023-06-14T02:10:34;39.45;;;35.53;;
51296;SDS011;37380;45.186;9.792;2023-06-14T02:13:02;42.13;;;38.13;;
51296;SDS011;37380;45.186;9.792;2023-06-14T02:15:29;45.67;;;40.95;;
51296;SDS011;37380;45.186;9.792;2023-06-14T02:18:01;46.75;;;42.25;;
51296;SDS011;37380;45.186;9.792;2023-06-14T02:20:32;46.45;;;41.67;;
51296;SDS011;37380;45.186;9.792;2023-06-14T02:22:59;45.83;;;41.03;;
51296;SDS011;37380;45.186;9.792;2023-06-14T02:25:30;43.38;;;39.10;;
51296;SDS011;37380;45.186;9.792;2023-06-14T02:27:58;36.03;;;32.55;;
51296;SDS011;37380;45.186;9.792;2023-06-14T02:30:25;37.75;;;34.25;;
51296;SDS011;37380;45.186;9.792;2023-06-14T02:32:55;35.08;;;31.08;;
51296;SDS011;37380;45.186;9.792;2023-06-14T02:35:23;33.47;;;29.73;;
51296;SDS011;37380;45.186;9.792;2023-06-14T02:37:55;33.30;;;29.98;;
51296;SDS011;37380;45.186;9.792;2023-06-14T02:40:22;34.65;;;30.88;;
51296;SDS011;37380;45.186;9.792;2023-06-14T02:42:50;35.13;;;31.85;;
51296;SDS011;37380;45.186;9.792;2023-06-14T02:45:17;35.72;;;32.25;;
51296;SDS011;37380;45.186;9.792;2023-06-14T02:47:46;37.13;;;33.10;;
51296;SDS011;37380;45.186;9.792;2023-06-14T02:50:13;35.03;;;31.52;;
51296;SDS011;37380;45.186;9.792;2023-06-14T02:52:41;36.58;;;33.00;;
51296;SDS011;37380;45.186;9.792;2023-06-14T02:55:08;33.78;;;30.17;;
51296;SDS011;37380;45.186;9.792;2023-06-14T02:57:37;34.47;;;31.10;;
51296;SDS011;37380;45.186;9.792;2023-06-14T03:00:06;40.67;;;34.13;;
51296;SDS011;37380;45.186;9.792;2023-06-14T03:02:37;36.00;;;32.45;;
51296;SDS011;37380;45.186;9.792;2023-06-14T03:05:06;31.92;;;28.83;;
51296;SDS011;37380;45.186;9.792;2023-06-14T03:07:34;28.02;;;25.23;;
51296;SDS011;37380;45.186;9.792;2023-06-14T03:10:03;28.27;;;25.58;;
51296;SDS011;37380;45.186;9.792;2023-06-14T03:12:32;27.10;;;24.33;;
51296;SDS011;37380;45.186;9.792;2023-06-14T03:14:59;27.38;;;24.83;;
51296;SDS011;37380;45.186;9.792;2023-06-14T03:17:35;24.80;;;22.17;;
51296;SDS011;37380;45.186;9.792;2023-06-14T03:20:07;23.63;;;21.38;;
51296;SDS011;37380;45.186;9.792;2023-06-14T03:22:35;23.80;;;18.65;;
51296;SDS011;37380;45.186;9.792;2023-06-14T03:25:02;23.63;;;21.33;;
51296;SDS011;37380;45.186;9.792;2023-06-14T03:27:34;19.90;;;18.20;;
51296;SDS011;37380;45.186;9.792;2023-06-14T03:30:02;19.40;;;17.63;;
51296;SDS011;37380;45.186;9.792;2023-06-14T03:32:31;18.98;;;16.83;;
51296;SDS011;37380;45.186;9.792;2023-06-14T03:35:00;19.33;;;17.50;;
51296;SDS011;37380;45.186;9.792;2023-06-14T03:37:27;16.65;;;15.00;;
51296;SDS011;37380;45.186;9.792;2023-06-14T03:39:55;17.42;;;15.68;;
51296;SDS011;37380;45.186;9.792;2023-06-14T03:42:24;13.95;;;12.55;;
51296;SDS011;37380;45.186;9.792;2023-06-14T03:44:53;13.93;;;12.48;;
51296;SDS011;37380;45.186;9.792;2023-06-14T03:47:23;14.70;;;13.27;;
51296;SDS011;37380;45.186;9.792;2023-06-14T03:49:51;14.30;;;12.73;;
51296;SDS011;37380;45.186;9.792;2023-06-14T03:52:18;13.00;;;11.82;;
51296;SDS011;37380;45.186;9.792;2023-06-14T03:54:47;14.40;;;12.63;;
51296;SDS011;37380;45.186;9.792;2023-06-14T03:57:18;12.90;;;11.65;;
51296;SDS011;37380;45.186;9.792;2023-06-14T03:59:48;13.73;;;12.43;;
51296;SDS011;37380;45.186;9.792;2023-06-14T04:02:16;11.98;;;10.98;;
51296;SDS011;37380;45.186;9.792;2023-06-14T04:04:45;11.40;;;10.38;;
51296;SDS011;37380;45.186;9.792;2023-06-14T04:07:12;14.00;;;12.55;;
51296;SDS011;37380;45.186;9.792;2023-06-14T04:09:40;13.00;;;11.88;;
51296;SDS011;37380;45.186;9.792;2023-06-14T04:12:07;11.93;;;10.82;;
51296;SDS011;37380;45.186;9.792;2023-06-14T04:17:10;11.60;;;10.55;;
51296;SDS011;37380;45.186;9.792;2023-06-14T04:19:38;12.95;;;11.77;;
51296;SDS011;37380;45.186;9.792;2023-06-14T04:22:05;12.50;;;11.35;;
51296;SDS011;37380;45.186;9.792;2023-06-14T04:24:34;14.82;;;11.50;;
51296;SDS011;37380;45.186;9.792;2023-06-14T04:27:02;12.02;;;10.82;;
51296;SDS011;37380;45.186;9.792;2023-06-14T04:29:30;12.45;;;11.40;;
51296;SDS011;37380;45.186;9.792;2023-06-14T04:32:03;12.85;;;11.63;;
51296;SDS011;37380;45.186;9.792;2023-06-14T04:34:31;13.65;;;12.48;;
51296;SDS011;37380;45.186;9.792;2023-06-14T04:37:00;12.60;;;11.50;;
51296;SDS011;37380;45.186;9.792;2023-06-14T04:39:34;12.80;;;11.80;;
51296;SDS011;37380;45.186;9.792;2023-06-14T04:42:01;16.58;;;11.13;;
51296;SDS011;37380;45.186;9.792;2023-06-14T04:44:31;13.45;;;11.88;;
51296;SDS011;37380;45.186;9.792;2023-06-14T04:47:01;14.68;;;12.50;;
51296;SDS011;37380;45.186;9.792;2023-06-14T04:49:28;14.93;;;12.75;;
51296;SDS011;37380;45.186;9.792;2023-06-14T04:51:57;14.55;;;12.60;;
51296;SDS011;37380;45.186;9.792;2023-06-14T04:54:31;17.92;;;11.38;;
51296;SDS011;37380;45.186;9.792;2023-06-14T04:57:01;20.25;;;13.18;;
51296;SDS011;37380;45.186;9.792;2023-06-14T04:59:30;12.75;;;11.75;;
51296;SDS011;37380;45.186;9.792;2023-06-14T05:02:00;20.08;;;13.25;;
51296;SDS011;37380;45.186;9.792;2023-06-14T05:04:27;12.63;;;11.52;;
51296;SDS011;37380;45.186;9.792;2023-06-14T05:06:56;16.10;;;12.95;;
51296;SDS011;37380;45.186;9.792;2023-06-14T05:09:24;14.15;;;12.95;;
51296;SDS011;37380;45.186;9.792;2023-06-14T05:11:51;12.68;;;11.68;;
51296;SDS011;37380;45.186;9.792;2023-06-14T05:14:20;14.05;;;12.85;;
51296;SDS011;37380;45.186;9.792;2023-06-14T05:16:50;16.05;;;12.23;;
51296;SDS011;37380;45.186;9.792;2023-06-14T05:19:17;18.60;;;11.52;;
51296;SDS011;37380;45.186;9.792;2023-06-14T05:21:45;13.45;;;12.23;;
51296;SDS011;37380;45.186;9.792;2023-06-14T05:24:13;12.85;;;11.68;;
51296;SDS011;37380;45.186;9.792;2023-06-14T05:26:40;26.20;;;12.77;;
51296;SDS011;37380;45.186;9.792;2023-06-14T05:29:07;13.73;;;12.55;;
51296;SDS011;37380;45.186;9.792;2023-06-14T05:31:34;16.10;;;13.93;;
51296;SDS011;37380;45.186;9.792;2023-06-14T05:34:02;14.65;;;12.70;;
51296;SDS011;37380;45.186;9.792;2023-06-14T05:36:29;19.00;;;15.18;;
51296;SDS011;37380;45.186;9.792;2023-06-14T05:38:56;15.55;;;13.90;;
51296;SDS011;37380;45.186;9.792;2023-06-14T05:41:26;15.45;;;13.00;;
51296;SDS011;37380;45.186;9.792;2023-06-14T05:43:54;16.48;;;14.85;;
51296;SDS011;37380;45.186;9.792;2023-06-14T05:46:24;17.15;;;15.50;;
51296;SDS011;37380;45.186;9.792;2023-06-14T05:48:53;17.98;;;15.88;;
51296;SDS011;37380;45.186;9.792;2023-06-14T05:51:21;17.65;;;15.77;;
51296;SDS011;37380;45.186;9.792;2023-06-14T05:53:52;17.83;;;16.13;;
51296;SDS011;37380;45.186;9.792;2023-06-14T05:56:19;16.77;;;15.20;;
51296;SDS011;37380;45.186;9.792;2023-06-14T05:58:47;18.52;;;16.70;;
51296;SDS011;37380;45.186;9.792;2023-06-14T06:01:14;27.65;;;18.92;;
51296;SDS011;37380;45.186;9.792;2023-06-14T06:03:42;19.40;;;17.60;;
51296;SDS011;37380;45.186;9.792;2023-06-14T06:06:13;30.10;;;20.58;;
51296;SDS011;37380;45.186;9.792;2023-06-14T06:08:40;21.73;;;19.75;;
51296;SDS011;37380;45.186;9.792;2023-06-14T06:11:08;24.00;;;20.83;;
51296;SDS011;37380;45.186;9.792;2023-06-14T06:13:35;23.23;;;20.98;;
51296;SDS011;37380;45.186;9.792;2023-06-14T06:16:02;24.38;;;21.75;;
51296;SDS011;37380;45.186;9.792;2023-06-14T06:18:30;30.45;;;24.02;;
51296;SDS011;37380;45.186;9.792;2023-06-14T06:20:57;25.15;;;22.83;;
51296;SDS011;37380;45.186;9.792;2023-06-14T06:23:24;28.17;;;22.52;;
51296;SDS011;37380;45.186;9.792;2023-06-14T06:25:52;23.65;;;21.48;;
51296;SDS011;37380;45.186;9.792;2023-06-14T06:28:19;26.77;;;24.20;;
51296;SDS011;37380;45.186;9.792;2023-06-14T06:30:46;25.83;;;23.33;;
51296;SDS011;37380;45.186;9.792;2023-06-14T06:33:14;26.45;;;23.63;;
51296;SDS011;37380;45.186;9.792;2023-06-14T06:35:41;28.00;;;22.75;;
51296;SDS011;37380;45.186;9.792;2023-06-14T06:38:09;25.75;;;23.15;;
51296;SDS011;37380;45.186;9.792;2023-06-14T06:40:37;29.48;;;24.65;;
51296;SDS011;37380;45.186;9.792;2023-06-14T06:43:04;28.85;;;24.63;;
51296;SDS011;37380;45.186;9.792;2023-06-14T06:45:40;27.40;;;25.02;;
51296;SDS011;37380;45.186;9.792;2023-06-14T06:48:07;27.83;;;25.02;;
51296;SDS011;37380;45.186;9.792;2023-06-14T06:50:37;31.52;;;26.15;;
51296;SDS011;37380;45.186;9.792;2023-06-14T06:53:05;28.35;;;25.38;;
51296;SDS011;37380;45.186;9.792;2023-06-14T06:55:33;29.98;;;27.17;;
51296;SDS011;37380;45.186;9.792;2023-06-14T06:58:01;31.40;;;28.17;;
51296;SDS011;37380;45.186;9.792;2023-06-14T07:00:28;31.65;;;27.42;;
51296;SDS011;37380;45.186;9.792;2023-06-14T07:02:56;33.42;;;30.10;;
51296;SDS011;37380;45.186;9.792;2023-06-14T07:05:23;33.50;;;30.13;;
51296;SDS011;37380;45.186;9.792;2023-06-14T07:07:51;32.10;;;28.85;;
51296;SDS011;37380;45.186;9.792;2023-06-14T07:10:18;34.30;;;30.30;;
51296;SDS011;37380;45.186;9.792;2023-06-14T07:12:45;40.67;;;32.00;;
51296;SDS011;37380;45.186;9.792;2023-06-14T07:15:13;36.40;;;32.53;;
51296;SDS011;37380;45.186;9.792;2023-06-14T07:17:41;36.67;;;31.27;;
51296;SDS011;37380;45.186;9.792;2023-06-14T07:20:09;43.50;;;32.15;;
51296;SDS011;37380;45.186;9.792;2023-06-14T07:22:40;36.05;;;32.45;;
51296;SDS011;37380;45.186;9.792;2023-06-14T07:25:09;34.38;;;30.95;;
51296;SDS011;37380;45.186;9.792;2023-06-14T07:27:42;34.97;;;31.73;;
51296;SDS011;37380;45.186;9.792;2023-06-14T07:30:10;35.28;;;31.48;;
51296;SDS011;37380;45.186;9.792;2023-06-14T07:32:38;33.83;;;30.38;;
51296;SDS011;37380;45.186;9.792;2023-06-14T07:35:06;32.47;;;28.65;;
51296;SDS011;37380;45.186;9.792;2023-06-14T07:37:33;37.65;;;30.80;;
51296;SDS011;37380;45.186;9.792;2023-06-14T07:40:00;34.97;;;31.55;;
51296;SDS011;37380;45.186;9.792;2023-06-14T07:42:30;33.05;;;29.65;;
51296;SDS011;37380;45.186;9.792;2023-06-14T07:44:57;31.33;;;26.75;;
51296;SDS011;37380;45.186;9.792;2023-06-14T07:47:25;35.05;;;30.83;;
51296;SDS011;37380;45.186;9.792;2023-06-14T07:49:53;30.77;;;27.50;;
51296;SDS011;37380;45.186;9.792;2023-06-14T07:52:20;32.88;;;26.70;;
51296;SDS011;37380;45.186;9.792;2023-06-14T07:54:48;32.40;;;29.00;;
51296;SDS011;37380;45.186;9.792;2023-06-14T07:57:15;31.73;;;27.33;;
51296;SDS011;37380;45.186;9.792;2023-06-14T07:59:42;38.53;;;26.98;;
51296;SDS011;37380;45.186;9.792;2023-06-14T08:02:09;30.70;;;27.88;;
51296;SDS011;37380;45.186;9.792;2023-06-14T08:04:36;40.58;;;28.65;;
51296;SDS011;37380;45.186;9.792;2023-06-14T08:07:04;31.55;;;28.10;;
51296;SDS011;37380;45.186;9.792;2023-06-14T08:09:33;32.67;;;27.02;;
51296;SDS011;37380;45.186;9.792;2023-06-14T08:12:01;30.08;;;27.27;;
51296;SDS011;37380;45.186;9.792;2023-06-14T08:14:29;32.35;;;28.83;;
51296;SDS011;37380;45.186;9.792;2023-06-14T08:16:56;32.00;;;28.58;;
51296;SDS011;37380;45.186;9.792;2023-06-14T08:19:23;34.67;;;29.15;;
51296;SDS011;37380;45.186;9.792;2023-06-14T08:21:50;31.50;;;28.10;;
51296;SDS011;37380;45.186;9.792;2023-06-14T08:24:17;35.05;;;31.38;;
51296;SDS011;37380;45.186;9.792;2023-06-14T08:26:47;36.20;;;31.75;;
51296;SDS011;37380;45.186;9.792;2023-06-14T08:29:14;36.60;;;32.58;;
51296;SDS011;37380;45.186;9.792;2023-06-14T08:31:41;34.15;;;29.60;;
51296;SDS011;37380;45.186;9.792;2023-06-14T08:34:09;39.95;;;33.42;;
51296;SDS011;37380;45.186;9.792;2023-06-14T08:36:36;35.45;;;31.85;;
51296;SDS011;37380;45.186;9.792;2023-06-14T08:39:03;34.50;;;30.88;;
51296;SDS011;37380;45.186;9.792;2023-06-14T08:41:30;33.30;;;30.00;;
51296;SDS011;37380;45.186;9.792;2023-06-14T08:43:57;32.88;;;29.55;;
51296;SDS011;37380;45.186;9.792;2023-06-14T08:46:25;32.47;;;29.40;;
51296;SDS011;37380;45.186;9.792;2023-06-14T08:48:55;32.00;;;28.15;;
51296;SDS011;37380;45.186;9.792;2023-06-14T08:51:26;33.95;;;30.35;;
51296;SDS011;37380;45.186;9.792;2023-06-14T08:54:00;33.20;;;27.30;;
51296;SDS011;37380;45.186;9.792;2023-06-14T08:56:28;30.58;;;27.40;;
51296;SDS011;37380;45.186;9.792;2023-06-14T08:58:57;29.52;;;26.67;;
51296;SDS011;37380;45.186;9.792;2023-06-14T09:01:28;34.53;;;28.13;;
51296;SDS011;37380;45.186;9.792;2023-06-14T09:03:58;28.83;;;25.73;;
51296;SDS011;37380;45.186;9.792;2023-06-14T09:06:25;31.13;;;27.83;;
51296;SDS011;37380;45.186;9.792;2023-06-14T09:08:55;26.33;;;23.55;;
51296;SDS011;37380;45.186;9.792;2023-06-14T09:11:25;30.90;;;26.38;;
51296;SDS011;37380;45.186;9.792;2023-06-14T09:13:53;31.60;;;24.70;;
51296;SDS011;37380;45.186;9.792;2023-06-14T09:16:21;29.90;;;22.80;;
51296;SDS011;37380;45.186;9.792;2023-06-14T09:18:48;24.13;;;21.52;;
51296;SDS011;37380;45.186;9.792;2023-06-14T09:21:15;24.25;;;21.05;;
51296;SDS011;37380;45.186;9.792;2023-06-14T09:23:44;22.80;;;20.60;;
51296;SDS011;37380;45.186;9.792;2023-06-14T09:26:13;22.08;;;19.33;;
51296;SDS011;37380;45.186;9.792;2023-06-14T09:28:47;20.23;;;18.35;;
51296;SDS011;37380;45.186;9.792;2023-06-14T09:31:19;21.90;;;18.42;;
51296;SDS011;37380;45.186;9.792;2023-06-14T09:33:48;24.50;;;16.67;;
51296;SDS011;37380;45.186;9.792;2023-06-14T09:36:17;19.88;;;16.25;;
51296;SDS011;37380;45.186;9.792;2023-06-14T09:39:01;16.60;;;14.93;;
51296;SDS011;37380;45.186;9.792;2023-06-14T09:41:36;21.40;;;18.35;;
51296;SDS011;37380;45.186;9.792;2023-06-14T09:44:05;19.45;;;17.27;;
51296;SDS011;37380;45.186;9.792;2023-06-14T09:46:40;23.30;;;18.50;;
51296;SDS011;37380;45.186;9.792;2023-06-14T09:49:08;17.35;;;15.40;;
51296;SDS011;37380;45.186;9.792;2023-06-14T09:51:36;21.67;;;17.60;;
51296;SDS011;37380;45.186;9.792;2023-06-14T09:54:16;19.58;;;17.45;;
51296;SDS011;37380;45.186;9.792;2023-06-14T09:56:49;24.17;;;16.42;;
51296;SDS011;37380;45.186;9.792;2023-06-14T09:59:19;17.67;;;15.88;;
51296;SDS011;37380;45.186;9.792;2023-06-14T10:01:48;18.55;;;16.70;;
51296;SDS011;37380;45.186;9.792;2023-06-14T10:04:18;23.85;;;17.23;;
51296;SDS011;37380;45.186;9.792;2023-06-14T10:06:48;21.30;;;18.98;;
51296;SDS011;37380;45.186;9.792;2023-06-14T10:09:17;18.90;;;16.92;;
51296;SDS011;37380;45.186;9.792;2023-06-14T10:11:44;18.63;;;16.85;;
51296;SDS011;37380;45.186;9.792;2023-06-14T10:14:12;25.40;;;19.25;;
51296;SDS011;37380;45.186;9.792;2023-06-14T10:16:59;21.58;;;19.30;;
51296;SDS011;37380;45.186;9.792;2023-06-14T10:19:35;19.75;;;17.95;;
51296;SDS011;37380;45.186;9.792;2023-06-14T10:22:18;24.50;;;17.50;;
51296;SDS011;37380;45.186;9.792;2023-06-14T10:24:52;18.77;;;17.17;;
51296;SDS011;37380;45.186;9.792;2023-06-14T10:27:18;22.02;;;16.95;;
51296;SDS011;37380;45.186;9.792;2023-06-14T10:32:21;19.23;;;17.33;;
51296;SDS011;37380;45.186;9.792;2023-06-14T10:35:05;25.98;;;15.93;;
51296;SDS011;37380;45.186;9.792;2023-06-14T10:37:36;22.05;;;16.45;;
51296;SDS011;37380;45.186;9.792;2023-06-14T10:40:03;19.15;;;17.02;;
51296;SDS011;37380;45.186;9.792;2023-06-14T10:42:32;19.17;;;16.83;;
51296;SDS011;37380;45.186;9.792;2023-06-14T10:45:00;17.27;;;15.48;;
51296;SDS011;37380;45.186;9.792;2023-06-14T10:47:30;14.73;;;13.27;;
51296;SDS011;37380;45.186;9.792;2023-06-14T10:52:37;18.80;;;17.02;;
51296;SDS011;37380;45.186;9.792;2023-06-14T11:00:19;16.33;;;12.35;;
51296;SDS011;37380;45.186;9.792;2023-06-14T11:11:06;14.63;;;13.10;;
51296;SDS011;37380;45.186;9.792;2023-06-14T11:13:36;8.82;;;7.95;;
51296;SDS011;37380;45.186;9.792;2023-06-14T11:16:12;10.18;;;6.68;;
51296;SDS011;37380;45.186;9.792;2023-06-14T11:18:41;5.38;;;4.88;;
51296;SDS011;37380;45.186;9.792;2023-06-14T11:21:10;5.85;;;5.35;;
51296;SDS011;37380;45.186;9.792;2023-06-14T11:23:37;6.65;;;6.05;;
51296;SDS011;37380;45.186;9.792;2023-06-14T11:26:04;8.95;;;8.07;;
51296;SDS011;37380;45.186;9.792;2023-06-14T11:28:38;9.93;;;9.00;;
51296;SDS011;37380;45.186;9.792;2023-06-14T11:31:07;10.80;;;9.70;;
51296;SDS011;37380;45.186;9.792;2023-06-14T11:33:35;9.75;;;8.85;;
51296;SDS011;37380;45.186;9.792;2023-06-14T11:36:02;12.73;;;11.40;;
51296;SDS011;37380;45.186;9.792;2023-06-14T11:38:34;12.13;;;11.05;;
51296;SDS011;37380;45.186;9.792;2023-06-14T11:41:03;13.68;;;10.07;;
51296;SDS011;37380;45.186;9.792;2023-06-14T11:43:30;10.48;;;9.57;;
51296;SDS011;37380;45.186;9.792;2023-06-14T11:46:00;11.77;;;10.68;;
51296;SDS011;37380;45.186;9.792;2023-06-14T11:48:37;12.30;;;11.23;;
51296;SDS011;37380;45.186;9.792;2023-06-14T11:51:06;13.38;;;8.13;;
51296;SDS011;37380;45.186;9.792;2023-06-14T11:53:34;10.05;;;9.05;;
51296;SDS011;37380;45.186;9.792;2023-06-14T11:56:02;15.95;;;9.20;;
51296;SDS011;37380;45.186;9.792;2023-06-14T11:58:30;10.43;;;9.30;;
51296;SDS011;37380;45.186;9.792;2023-06-14T12:00:57;10.00;;;9.00;;
51296;SDS011;37380;45.186;9.792;2023-06-14T12:03:28;10.15;;;9.32;;
51296;SDS011;37380;45.186;9.792;2023-06-14T12:06:02;9.15;;;8.38;;
51296;SDS011;37380;45.186;9.792;2023-06-14T12:08:34;9.75;;;8.40;;
51296;SDS011;37380;45.186;9.792;2023-06-14T12:11:04;9.25;;;8.48;;
51296;SDS011;37380;45.186;9.792;2023-06-14T12:13:33;8.88;;;7.70;;
51296;SDS011;37380;45.186;9.792;2023-06-14T12:16:00;9.65;;;8.77;;
51296;SDS011;37380;45.186;9.792;2023-06-14T12:18:35;10.85;;;8.10;;
51296;SDS011;37380;45.186;9.792;2023-06-14T12:21:06;9.32;;;8.63;;
51296;SDS011;37380;45.186;9.792;2023-06-14T12:26:13;8.63;;;7.72;;
51296;SDS011;37380;45.186;9.792;2023-06-14T12:28:42;13.70;;;12.15;;
51296;SDS011;37380;45.186;9.792;2023-06-14T12:31:13;31.42;;;28.73;;
51296;SDS011;37380;45.186;9.792;2023-06-14T12:33:43;9.73;;;8.93;;
51296;SDS011;37380;45.186;9.792;2023-06-14T12:36:12;14.73;;;8.57;;
51296;SDS011;37380;45.186;9.792;2023-06-14T12:38:40;11.75;;;7.80;;
51296;SDS011;37380;45.186;9.792;2023-06-14T12:41:08;8.95;;;7.97;;
51296;SDS011;37380;45.186;9.792;2023-06-14T12:43:35;7.97;;;7.13;;
51296;SDS011;37380;45.186;9.792;2023-06-14T12:46:02;8.02;;;7.32;;
51296;SDS011;37380;45.186;9.792;2023-06-14T12:48:29;12.80;;;8.85;;
51296;SDS011;37380;45.186;9.792;2023-06-14T12:50:58;19.75;;;10.55;;
51296;SDS011;37380;45.186;9.792;2023-06-14T12:53:25;16.05;;;14.57;;
51296;SDS011;37380;45.186;9.792;2023-06-14T12:55:53;11.68;;;8.77;;
51296;SDS011;37380;45.186;9.792;2023-06-14T12:58:20;23.08;;;20.65;;
51296;SDS011;37380;45.186;9.792;2023-06-14T13:00:47;9.32;;;7.88;;
51296;SDS011;37380;45.186;9.792;2023-06-14T13:03:14;10.27;;;8.88;;
51296;SDS011;37380;45.186;9.792;2023-06-14T13:05:42;9.20;;;8.40;;
51296;SDS011;37380;45.186;9.792;2023-06-14T13:08:09;26.50;;;23.85;;
51296;SDS011;37380;45.186;9.792;2023-06-14T13:10:37;15.43;;;13.75;;
51296;SDS011;37380;45.186;9.792;2023-06-14T13:13:04;13.15;;;11.00;;
51296;SDS011;37380;45.186;9.792;2023-06-14T13:15:31;11.88;;;10.77;;
51296;SDS011;37380;45.186;9.792;2023-06-14T13:17:58;13.18;;;11.82;;
51296;SDS011;37380;45.186;9.792;2023-06-14T13:20:25;13.07;;;11.00;;
51296;SDS011;37380;45.186;9.792;2023-06-14T13:22:52;18.55;;;11.02;;
51296;SDS011;37380;45.186;9.792;2023-06-14T13:25:19;36.47;;;32.90;;
51296;SDS011;37380;45.186;9.792;2023-06-14T13:27:46;13.23;;;11.48;;
51296;SDS011;37380;45.186;9.792;2023-06-14T13:30:13;14.98;;;8.10;;
51296;SDS011;37380;45.186;9.792;2023-06-14T13:32:42;19.48;;;12.73;;
51296;SDS011;37380;45.186;9.792;2023-06-14T13:35:09;9.95;;;7.35;;
51296;SDS011;37380;45.186;9.792;2023-06-14T13:37:36;13.23;;;8.05;;
51296;SDS011;37380;45.186;9.792;2023-06-14T13:40:03;11.02;;;8.23;;
51296;SDS011;37380;45.186;9.792;2023-06-14T13:42:31;6.68;;;5.78;;
51296;SDS011;37380;45.186;9.792;2023-06-14T13:44:59;7.75;;;7.00;;
51296;SDS011;37380;45.186;9.792;2023-06-14T13:47:26;10.77;;;9.45;;
51296;SDS011;37380;45.186;9.792;2023-06-14T13:49:53;11.73;;;10.32;;
51296;SDS011;37380;45.186;9.792;2023-06-14T13:52:21;10.88;;;9.05;;
51296;SDS011;37380;45.186;9.792;2023-06-14T13:54:48;13.52;;;12.13;;
51296;SDS011;37380;45.186;9.792;2023-06-14T13:57:16;13.30;;;12.00;;
51296;SDS011;37380;45.186;9.792;2023-06-14T13:59:43;15.35;;;11.85;;
51296;SDS011;37380;45.186;9.792;2023-06-14T14:02:11;18.65;;;13.05;;
51296;SDS011;37380;45.186;9.792;2023-06-14T14:04:39;13.45;;;12.05;;
51296;SDS011;37380;45.186;9.792;2023-06-14T14:07:07;8.85;;;6.88;;
51296;SDS011;37380;45.186;9.792;2023-06-14T14:09:35;16.52;;;6.75;;
51296;SDS011;37380;45.186;9.792;2023-06-14T14:12:04;4.32;;;3.75;;
51296;SDS011;37380;45.186;9.792;2023-06-14T14:14:32;6.22;;;3.42;;
51296;SDS011;37380;45.186;9.792;2023-06-14T14:16:59;4.78;;;3.58;;
51296;SDS011;37380;45.186;9.792;2023-06-14T14:19:26;8.73;;;5.50;;
51296;SDS011;37380;45.186;9.792;2023-06-14T14:21:53;11.10;;;5.40;;
51296;SDS011;37380;45.186;9.792;2023-06-14T14:24:21;5.68;;;5.15;;
51296;SDS011;37380;45.186;9.792;2023-06-14T14:26:48;7.55;;;6.88;;
51296;SDS011;37380;45.186;9.792;2023-06-14T14:29:16;6.70;;;6.10;;
51296;SDS011;37380;45.186;9.792;2023-06-14T14:31:44;13.80;;;6.15;;
51296;SDS011;37380;45.186;9.792;2023-06-14T14:34:12;20.85;;;11.52;;
51296;SDS011;37380;45.186;9.792;2023-06-14T14:36:39;9.85;;;8.98;;
51296;SDS011;37380;45.186;9.792;2023-06-14T14:39:09;21.52;;;17.38;;
51296;SDS011;37380;45.186;9.792;2023-06-14T14:41:36;17.35;;;15.25;;
51296;SDS011;37380;45.186;9.792;2023-06-14T14:44:08;20.15;;;14.80;;
51296;SDS011;37380;45.186;9.792;2023-06-14T14:46:35;17.65;;;13.68;;
51296;SDS011;37380;45.186;9.792;2023-06-14T14:49:02;15.82;;;13.32;;
51296;SDS011;37380;45.186;9.792;2023-06-14T14:51:30;15.38;;;13.73;;
51296;SDS011;37380;45.186;9.792;2023-06-14T14:53:57;17.52;;;12.95;;
51296;SDS011;37380;45.186;9.792;2023-06-14T14:56:24;16.13;;;14.68;;
51296;SDS011;37380;45.186;9.792;2023-06-14T14:58:52;17.38;;;12.85;;